• Join FlightAware (Why Join?)
  • Login
  • US Flag 
04:33AM EDT


 

Airport Tracker/Info


-or-


 

Live Flight TrackerFlight Track Log ✈ FLG4262 ✈ 19-Nov-2013 ✈ KDTW - KBGM

Flight Track Log - Related Links

Times and Time Zones

All times are in EST time to prevent confusion due to time zone crossing. See the FLG4262 flight status page for this flight to view local times or setup timezone preferences in your user account.

Time Position Orientation Groundspeed Altitude Reporting Facility
EST Latitude Longitude Course Direction KTS MPH feet Rate Location/Type
03:59PM 42.2008 -83.3550 90° East 172 198 1,200  Level Cleveland Center
03:59PM 42.1922 -83.3567 188° South 171 197 1,800 2,460 Climbing Cleveland Center
04:00PM 42.1358 -83.3544 178° South 208 239 4,300 2,220 Climbing Cleveland Center
04:01PM 42.1242 -83.3478 157° South 203 234 4,700 1,740 Climbing Cleveland Center
04:01PM 42.0736 -83.3175 156° South 289 333 6,100 2,220 Climbing Cleveland Center
04:02PM 42.0547 -83.2989 144° Southeast 263 303 7,000 2,580 Climbing Cleveland Center
04:03PM 42.0614 -83.2006 85° East 276 318 9,600 1,620 Climbing Cleveland Center
04:04PM 42.0972 -83.1114 62° Northeast 290 334 10,400 1,500 Climbing Cleveland Center
04:05PM 42.2378 -82.4311 90° East  Level Estimated
04:05PM 42.1406 -83.0069 61° Northeast 313 360 12,700  Level Cleveland Center
04:06PM 42.1956 -82.8750 61° Northeast 335 386 14,700 1,680 Climbing Cleveland Center
04:07PM 42.2442 -82.7578 61° Northeast 355 409 16,200 1,440 Climbing Cleveland Center
04:08PM 42.2944 -82.6353 61° Northeast 373 429 17,800 1,200 Climbing Cleveland Center
04:09PM 42.3458 -82.5108 61° Northeast 381 438 18,700 960 Climbing Cleveland Center
04:10PM 42.3653 -82.3658 80° East 408 470 19,800 1,200 Climbing Cleveland Center
04:11PM 42.3575 -82.1761 93° East 420 483 21,200 1,140 Climbing Cleveland Center
04:12PM 42.3503 -82.0192 94° East 427 491 22,200 960 Climbing Cleveland Center
04:13PM 42.3425 -81.8539 94° East 433 498 23,200 780 Climbing Cleveland Center
04:14PM 42.3356 -81.6847 93° East 443 510 23,900 540 Climbing Cleveland Center
04:15PM 42.3275 -81.5103 94° East 457 526 24,400 480 Climbing Cleveland Center
04:16PM 42.3183 -81.3308 94° East 471 542 24,900 480 Climbing Cleveland Center
04:17PM 42.3083 -81.1186 94° East 479 551 25,500 480 Climbing Cleveland Center
04:18PM 42.2986 -80.9347 94° East 485 558 26,000 480 Climbing Cleveland Center
04:19PM 42.2894 -80.7494 94° East 488 562 26,600 480 Climbing Cleveland Center
04:20PM 42.2792 -80.5633 94° East 490 564 27,000 180 Climbing Cleveland Center
04:21PM 42.2683 -80.3739 94° East 497 572 27,000  Level Cleveland Center
04:22PM 42.2569 -80.1808 94° East 508 585 27,000  Level Cleveland Center
04:23PM 42.2442 -79.9797 95° East 511 588 27,000  Level Cleveland Center
04:24PM 42.2325 -79.7928 95° East 504 580 27,000  Level Cleveland Center
04:26PM 42.2208 -79.6025 95° East 510 587 27,000  Level Cleveland Center
04:27PM 42.2053 -79.3753 95° East 509 586 27,000  Level Cleveland Center
04:28PM 42.1914 -79.1861 96° East 510 587 27,000  Level Cleveland Center
04:29PM 42.1897 -78.9956 91° East 507 583 27,000  Level Cleveland Center
04:30PM 42.1953 -78.8131 88° East 506 582 27,000 -240 Level Cleveland Center
04:31PM 42.1981 -78.6225 89° East 509 586 26,600 -960 Descending Cleveland Center
04:32PM 42.2011 -78.3944 89° East 511 588 25,000 -780 Descending Cleveland Center
04:33PM 42.2033 -78.2131 89° East 494 568 25,000 -660 Level Cleveland Center
04:34PM 42.2050 -78.0342 89° East 484 557 23,700 -1,380 Descending Cleveland Center
04:35PM 42.2067 -77.8511 89° East 491 565 22,200 -1,500 Descending Cleveland Center
04:36PM 42.2086 -77.6694 89° East 492 566 20,700 -1,620 Descending Cleveland Center
04:37PM 42.2086 -77.4631 90° East 469 540 18,900 -1,500 Descending Cleveland Center
04:38PM 42.2108 -77.3042 89° East 435 501 17,700 -900 Descending Cleveland Center
04:39PM 42.2111 -77.1494 90° East 418 481 17,100 -600 Descending Cleveland Center
04:40PM 42.2108 -76.9958 90° East 415 478 16,500 -1,260 Descending Cleveland Center
04:41PM 42.2106 -76.8444 90° East 407 468 14,500 -1,920 Descending Cleveland Center
04:42PM 42.1994 -76.6744 95° East 382 440 12,500 -1,800 Descending Cleveland Center
04:43PM 42.1856 -76.5450 98° East 355 409 10,800 -1,620 Descending Cleveland Center
04:44PM 42.1731 -76.4308 98° East 314 361 9,200 -1,800 Descending Cleveland Center
04:45PM 42.1594 -76.3322 101° East 307 353 7,500 -1,920 Descending New York Center
04:46PM 42.1475 -76.2306 99° East 287 330 5,700 -1,800 Descending New York Center
04:47PM 42.1372 -76.1403 99° East 259 298 4,000 -900 Descending New York Center
04:48PM 42.1283 -76.0583 98° East 237 273 3,900 -180 Descending New York Center
04:49PM 42.1153 -75.9792 103° East 225 259 3,700 -420 Descending New York Center
04:50PM 42.1361 -75.9306 60° Northeast 171 197 3,100 -660 Descending New York Center
04:51PM 42.1706 -75.9500 337° Northwest 87 100 2,400 -540 Descending New York Center
04:52PM 42.1911 -75.9572 345° North 87 100 2,100 -300 Descending New York Center